Flight Track Log - Related Links

Times and Time Zones

All times are in EDT time to prevent confusion due to time zone crossing. See the EJA941 flight status page for this flight to view local times or setup timezone preferences in your user account.

Time Position Orientation Groundspeed Altitude Reporting Facility
EDT Latitude Longitude Course Direction KTS MPH feet Rate Location/Type
Thu 06:32:56 AM 38.9667 -77.5167 117° Southeast 198 228 2,500  Level Potomac TRACON
Thu 06:33:56 AM 39.0000 -77.5667 311° West 234 269 5,200 2,500 Climbing Potomac TRACON
Thu 06:34:56 AM 39.0667 -77.5333 21° North 283 326 7,500 1,850 Climbing Potomac TRACON
Thu 06:35:56 AM 39.1167 -77.4500 52° Northeast 299 344 8,900 744 Climbing Potomac TRACON
Thu 06:36:57 AM 39.1667 -77.3667 52° Northeast 299 344 9,000 50 Climbing Potomac TRACON
Thu 06:37:57 AM 39.2000 -77.2833 63° Northeast 286 329 9,000 850 Level Potomac TRACON
Thu 06:38:00 AM 39.3103 -76.9758 117° Southeast  Level FlightAware Approximate
Thu 06:38:57 AM 39.2500 -77.1833 57° Northeast 310 357 10,700  Level Potomac TRACON
Thu 06:39:57 AM 39.3167 -77.0833 49° Northeast 375 432 11,900 1,150 Climbing Potomac TRACON
Thu 06:40:57 AM 39.3167 -76.9500 90° East 387 445 13,000 550 Climbing Potomac TRACON
Thu 06:41:57 AM 39.2667 -76.8000 113° Southeast 414 476 13,000  Level Potomac TRACON
Thu 06:42:57 AM 39.2333 -76.6667 108° East 447 514 13,000  Level Potomac TRACON
Thu 06:43:57 AM 39.1833 -76.5333 116° Southeast 391 450 13,000  Level Potomac TRACON
Thu 06:46:13 AM 39.0950 -76.2494 112° Southeast 381 438 13,000 -31 Level Washington Center
Thu 06:47:12 AM 39.0622 -76.1236 109° East 392 451 12,900 -50 Descending Washington Center
Thu 06:48:12 AM 39.0439 -75.9819 99° East 398 458 12,900  Level Washington Center
Thu 06:49:13 AM 39.0547 -75.8322 85° East 403 464 12,900  Level Washington Center
Thu 06:50:11 AM 39.0614 -75.6878 87° East 409 471 12,900  Level Washington Center
Thu 06:51:12 AM 39.0758 -75.5381 83° East 409 471 12,900  Level Washington Center
Thu 06:52:13 AM 39.1236 -75.4044 65° Northeast 404 465 12,900  Level Washington Center
Thu 06:53:14 AM 39.1714 -75.2650 66° East 404 465 12,900  Level Washington Center
Thu 06:54:12 AM 39.2231 -75.1308 64° Northeast 415 478 12,900 -350 Level Washington Center
Thu 06:55:14 AM 39.2786 -74.9992 61° Northeast 420 483 12,200 -1,059 Descending Washington Center
Thu 06:56:11 AM 39.3239 -74.8939 61° Northeast 385 443 10,800 -2,182 Descending Washington Center
Thu 06:56:42 AM 39.3486 -74.8347 62° Northeast 304 350 9,000 -3,097 Descending Washington Center
Thu 06:57:13 AM 39.3733 -74.7969 50° Northeast 317 365 7,600 -2,733 Descending Washington Center
Thu 06:58:12 AM 39.4506 -74.8014 357° North 237 273 4,900 -1,800 Descending Washington Center
Thu 06:59:13 AM 39.5192 -74.7925 North 237 273 4,000 -1,082 Descending Washington Center
Thu 07:00:14 AM 39.5167 -74.7200 93° East 163 188 2,700 -1,361 Descending Washington Center
Thu 07:01:12 AM 39.4953 -74.6639 116° Southeast 143 165 1,300 -1,109 Descending Washington Center
Thu 07:02:13 AM 39.4761 -74.6156 117° Southeast 143 165 500 -492 Descending Washington Center
Thu 07:03:14 AM 39.4653 -74.5756 109° East 149 171 300 -197 Descending Washington Center

Login

Don't have an account? Register now (free) for customized features, flight alerts, and more!